Search for airport 
image banner adimage banner adimage banner ad
image banner ad

26PN - Leeds&Northrup Co

Located in North Wales, United States

ICAO - 26PN, IATA -

Data provided by Airmate  

General information

Coordinates: N40°13'0" W75°16'44"
Elevation is 346 feet MSL.
Magnetic variation is -11° East
View others Airports in Pennsylvania

Operational data

Special qualification required
Current time UTC:
Current local time:
Weather at : KLOM - Wings Field ( 9 km )
METAR: KLOM 182215Z AUTO 24009KT 10SM CLR 26/06 A3026 RMK AO2 T02640057
View NOTAMs / SUP AIP / TFR affecting this airport [VIEW]
Communications frequencies: [VIEW]

Runways:

Airport contact information

Address: North Wales United States

Satellite view of 26PN